Terminal Aerodrome Forecast
Issued by NWS Greer, SC

Home | Current Version | Previous Version | Text Only | Print | Product List | Glossary On
Versions: 1 2 3 4 5 6 7 8 9 10 11 12 13 14 15 16 17 18 19 20 21 22 23 24 25 26 27 28
158
FTUS42 KGSP 200237 AAB
TAFGSP
TAF AMD
KGSP 200237Z 2003/2024 01004KT 1SM BR OVC002
      TEMPO 2004/2008 1/2SM FG OVC001
     FM200800 VRB02KT 1/4SM FG VV001
     FM201400 19004KT 1SM BR BKN003
     FM201600 19004KT P6SM BKN005
     FM202200 16004KT P6SM BKN010=

USA.gov is the U.S. government's official web portal to all federal, state and local government web resources and services.